Time;durP1;ratioP1;P1;durP2;ratioP2;P2;SDS_P1;SDS_P2;PMS_P1;PMS_P2;Temp;Humidity;BMP_temperature;BMP_pressure;BME280_temperature;BME280_humidity;BME280_pressure;Samples;Min_cycle;Max_cycle;Signal;HPM_P1;HPM_P2
2022/05/09 00:00:11;;;;;;;8.75;3.78;;;16.10;99.90;;;;;;5097906;28;20021;-78
2022/05/09 00:02:37;;;;;;;6.80;3.97;;;16.00;99.90;;;;;;5098048;28;20020;-78
2022/05/09 00:05:04;;;;;;;7.03;3.88;;;15.90;99.90;;;;;;5097687;28;20516;-77
2022/05/09 00:07:29;;;;;;;7.55;3.88;;;15.70;99.90;;;;;;5097872;28;20024;-77
2022/05/09 00:09:55;;;;;;;8.02;4.00;;;15.50;99.90;;;;;;5097843;28;20445;-78
2022/05/09 00:12:21;;;;;;;5.88;4.10;;;15.30;99.90;;;;;;5097711;28;20438;-78
2022/05/09 00:14:47;;;;;;;6.15;3.95;;;15.20;99.90;;;;;;5097083;28;20048;-78
2022/05/09 00:17:13;;;;;;;6.13;4.47;;;15.10;99.90;;;;;;5083524;28;20032;-78
2022/05/09 00:19:39;;;;;;;6.00;3.88;;;14.90;99.90;;;;;;5096070;28;20031;-78
2022/05/09 00:22:05;;;;;;;8.30;3.70;;;14.90;99.90;;;;;;5096275;28;20024;-78
2022/05/09 00:24:31;;;;;;;6.35;4.20;;;14.80;99.90;;;;;;5096208;28;20113;-78
2022/05/09 00:26:57;;;;;;;5.75;3.42;;;14.70;99.90;;;;;;5097559;28;20031;-78
2022/05/09 00:29:24;;;;;;;5.90;4.00;;;14.60;99.90;;;;;;5097243;28;20443;-78
2022/05/09 00:31:53;;;;;;;10.85;4.70;;;14.70;99.90;;;;;;5097547;28;20039;-78
2022/05/09 00:34:21;;;;;;;6.88;4.50;;;14.80;99.90;;;;;;5096925;28;20103;-79
2022/05/09 00:36:49;;;;;;;5.13;3.85;;;14.80;99.90;;;;;;5096195;28;20480;-78
2022/05/09 00:39:16;;;;;;;9.85;4.95;;;14.90;99.90;;;;;;5097247;28;20059;-79
2022/05/09 00:41:43;;;;;;;7.60;4.35;;;15.00;99.90;;;;;;5097409;28;20024;-78
2022/05/09 00:44:20;;;;;;;6.13;3.58;;;15.00;99.90;;;;;;5097041;28;20027;-78
2022/05/09 00:46:49;;;;;;;6.60;3.90;;;15.10;99.90;;;;;;5094106;28;20537;-79
2022/05/09 00:49:26;;;;;;;7.35;4.82;;;15.10;99.90;;;;;;5094458;28;20516;-78
2022/05/09 00:52:01;;;;;;;6.35;4.45;;;15.20;99.90;;;;;;5097248;28;20028;-79
2022/05/09 00:54:35;;;;;;;9.95;4.40;;;15.20;99.90;;;;;;5095673;28;20028;-78
2022/05/09 00:57:08;;;;;;;7.72;4.50;;;15.30;99.90;;;;;;5095902;28;20484;-78
2022/05/09 00:59:37;;;;;;;8.80;4.15;;;15.20;99.90;;;;;;5095555;28;20024;-78
2022/05/09 01:02:03;;;;;;;6.25;3.95;;;15.20;99.90;;;;;;5095874;28;20051;-78
2022/05/09 01:04:39;;;;;;;7.38;4.53;;;15.20;99.90;;;;;;5096842;28;20515;-78
2022/05/09 01:07:05;;;;;;;6.38;4.03;;;15.30;99.90;;;;;;5097014;28;20028;-78
2022/05/09 01:09:30;;;;;;;8.52;3.92;;;15.30;99.90;;;;;;5095786;28;20035;-78
2022/05/09 01:11:56;;;;;;;4.38;3.55;;;15.30;99.90;;;;;;5096730;28;20024;-78
2022/05/09 01:14:28;;;;;;;6.93;4.15;;;15.30;99.90;;;;;;5095572;28;20073;-78
2022/05/09 01:16:55;;;;;;;6.15;4.13;;;15.30;99.90;;;;;;5082984;28;20029;-79
2022/05/09 01:19:39;;;;;;;6.75;3.85;;;15.30;99.90;;;;;;5096597;28;20012;-79
2022/05/09 01:22:25;;;;;;;6.05;4.22;;;15.20;99.90;;;;;;5095596;28;20031;-78
2022/05/09 01:24:53;;;;;;;8.23;4.25;;;15.20;99.90;;;;;;5095367;28;20024;-78
2022/05/09 01:27:20;;;;;;;6.25;4.10;;;15.20;99.90;;;;;;5095542;28;20024;-78
2022/05/09 01:30:02;;;;;;;6.47;4.70;;;15.10;99.90;;;;;;5096765;28;20024;-78
2022/05/09 01:32:58;;;;;;;8.38;4.05;;;15.10;99.90;;;;;;5096807;28;20116;-78
2022/05/09 01:35:38;;;;;;;5.95;4.10;;;15.10;99.90;;;;;;5095918;28;20032;-78
2022/05/09 01:38:25;;;;;;;8.80;4.50;;;15.10;99.90;;;;;;5095375;28;20054;-78
2022/05/09 01:40:51;;;;;;;6.85;4.00;;;15.10;99.90;;;;;;5096679;28;20383;-78
2022/05/09 01:43:40;;;;;;;9.35;4.47;;;15.10;99.90;;;;;;5097054;28;20095;-78
2022/05/09 01:46:11;;;;;;;5.05;3.53;;;15.00;99.90;;;;;;5096359;28;20052;-78
2022/05/09 01:51:23;;;;;;;10.15;4.10;;;15.00;99.90;;;;;;5100655;28;20034;-78
2022/05/09 01:53:50;;;;;;;8.00;4.03;;;15.00;99.90;;;;;;5099216;28;20434;-78
2022/05/09 01:56:18;;;;;;;6.75;3.88;;;15.10;99.90;;;;;;5099057;28;20103;-78
2022/05/09 01:58:44;;;;;;;6.25;4.35;;;15.10;99.90;;;;;;5100130;28;20028;-78
2022/05/09 02:01:10;;;;;;;6.82;4.25;;;15.00;99.90;;;;;;5098961;28;20024;-78
2022/05/09 02:03:36;;;;;;;8.35;3.67;;;14.90;99.90;;;;;;5098972;28;20031;-78
2022/05/09 02:06:03;;;;;;;7.70;3.63;;;14.80;99.90;;;;;;5096787;28;20024;-78
2022/05/09 02:08:29;;;;;;;10.45;4.20;;;14.80;99.90;;;;;;5090777;28;20142;-79
2022/05/09 02:10:55;;;;;;;5.88;3.92;;;14.80;99.90;;;;;;5100352;28;20071;-78
2022/05/09 02:13:21;;;;;;;4.97;3.75;;;14.80;99.90;;;;;;5098587;28;20036;-78
2022/05/09 02:15:47;;;;;;;5.97;4.05;;;14.70;99.90;;;;;;5091392;28;20126;-79
2022/05/09 02:18:13;;;;;;;7.38;3.50;;;14.50;99.90;;;;;;5093912;28;20028;-78
2022/05/09 02:20:39;;;;;;;8.10;4.38;;;14.40;99.90;;;;;;5099612;28;20031;-79
2022/05/09 02:23:05;;;;;;;5.32;4.10;;;14.30;99.90;;;;;;5099812;28;20024;-78
2022/05/09 02:25:31;;;;;;;5.93;4.10;;;14.20;99.90;;;;;;5100061;28;20027;-79
2022/05/09 02:27:59;;;;;;;10.48;4.55;;;14.10;99.90;;;;;;5098236;28;20028;-79
2022/05/09 02:30:25;;;;;;;6.45;4.40;;;14.00;99.90;;;;;;5099617;28;20032;-78
2022/05/09 02:32:52;;;;;;;9.65;4.78;;;13.70;99.90;;;;;;5099448;28;20027;-78
2022/05/09 02:35:20;;;;;;;6.55;4.13;;;13.60;99.90;;;;;;5099770;28;20031;-79
2022/05/09 02:37:47;;;;;;;5.18;4.10;;;13.50;99.90;;;;;;5099362;28;20488;-79
2022/05/09 02:40:14;;;;;;;7.60;4.55;;;13.40;99.90;;;;;;5098223;28;20528;-79
2022/05/09 02:42:39;;;;;;;7.68;4.35;;;13.40;99.90;;;;;;5098128;28;20028;-79
2022/05/09 02:45:07;;;;;;;8.80;4.43;;;13.40;99.90;;;;;;5099250;28;20042;-78
2022/05/09 02:47:34;;;;;;;8.13;5.00;;;13.30;99.90;;;;;;5098136;28;20059;-79
2022/05/09 02:50:00;;;;;;;7.95;4.25;;;13.20;99.90;;;;;;5097889;28;20032;-79
2022/05/09 02:52:26;;;;;;;8.07;4.50;;;13.20;99.90;;;;;;5098173;28;20024;-78
2022/05/09 02:54:51;;;;;;;6.20;4.43;;;13.10;99.90;;;;;;5097912;28;20020;-78
2022/05/09 02:57:18;;;;;;;7.40;4.88;;;13.10;99.90;;;;;;5098937;28;20158;-78
2022/05/09 02:59:44;;;;;;;8.88;4.97;;;13.00;99.90;;;;;;5097621;28;20411;-78
2022/05/09 03:02:10;;;;;;;9.40;4.50;;;13.00;99.90;;;;;;5099066;28;20016;-78
2022/05/09 03:04:39;;;;;;;6.30;4.38;;;13.00;99.90;;;;;;5097486;28;20020;-78
2022/05/09 03:07:10;;;;;;;10.52;4.47;;;12.90;99.90;;;;;;5099221;28;20028;-78
2022/05/09 03:09:36;;;;;;;8.35;4.90;;;12.80;99.90;;;;;;5098977;28;20016;-79
2022/05/09 03:12:04;;;;;;;10.63;4.65;;;12.80;99.90;;;;;;5098817;28;20100;-79
2022/05/09 03:14:31;;;;;;;9.43;4.45;;;12.80;99.90;;;;;;5095304;28;20016;-78
2022/05/09 03:16:57;;;;;;;6.30;4.50;;;12.70;99.90;;;;;;5083212;28;20047;-78
2022/05/09 03:19:26;;;;;;;6.93;4.65;;;12.70;99.90;;;;;;5097242;28;20134;-78
2022/05/09 03:21:53;;;;;;;10.55;4.95;;;12.70;99.90;;;;;;5098733;28;20043;-78
2022/05/09 03:24:19;;;;;;;6.43;4.40;;;12.60;99.90;;;;;;5097315;28;20097;-78
2022/05/09 03:26:46;;;;;;;8.52;4.78;;;12.60;99.90;;;;;;5097205;28;20492;-78
2022/05/09 03:29:13;;;;;;;7.78;5.00;;;12.50;99.90;;;;;;5098568;28;20043;-78
2022/05/09 03:31:39;;;;;;;9.23;5.30;;;12.60;99.90;;;;;;5098498;28;20016;-78
2022/05/09 03:34:05;;;;;;;14.35;5.03;;;12.50;99.90;;;;;;5098379;28;20024;-78
2022/05/09 03:36:31;;;;;;;8.70;5.30;;;12.60;99.90;;;;;;5098361;28;20021;-79
2022/05/09 03:38:57;;;;;;;10.05;5.80;;;12.60;99.90;;;;;;5098763;28;20024;-78
2022/05/09 03:41:23;;;;;;;8.70;5.40;;;12.60;99.90;;;;;;5097186;28;20024;-78
2022/05/09 03:43:49;;;;;;;8.60;5.15;;;12.60;99.90;;;;;;5098602;28;20108;-79
2022/05/09 03:46:16;;;;;;;9.15;5.30;;;12.60;99.90;;;;;;5098156;28;20055;-78
2022/05/09 03:48:42;;;;;;;10.02;5.15;;;12.70;99.90;;;;;;5097248;28;20094;-78
2022/05/09 03:51:08;;;;;;;7.43;4.78;;;12.70;99.90;;;;;;5098192;28;20449;-78
2022/05/09 03:53:34;;;;;;;10.55;5.40;;;12.60;99.90;;;;;;5098472;28;20058;-79
2022/05/09 03:56:00;;;;;;;8.68;5.13;;;12.60;99.90;;;;;;5098121;28;20017;-79
2022/05/09 03:58:27;;;;;;;6.80;5.78;;;12.60;99.90;;;;;;5099518;28;20035;-79
2022/05/09 04:00:53;;;;;;;8.55;5.18;;;12.60;99.90;;;;;;5097912;28;20471;-79
2022/05/09 04:03:19;;;;;;;5.63;4.72;;;12.70;99.90;;;;;;5098185;28;20020;-79
2022/05/09 04:05:45;;;;;;;6.95;5.57;;;12.80;99.90;;;;;;5097778;28;20069;-79
2022/05/09 04:08:16;;;;;;;7.60;5.35;;;12.80;99.90;;;;;;5096547;28;20020;-78
2022/05/09 04:10:43;;;;;;;13.57;5.38;;;12.70;99.90;;;;;;5097066;28;20019;-78
2022/05/09 04:13:09;;;;;;;10.88;5.55;;;12.70;99.90;;;;;;5098088;28;20040;-78
2022/05/09 04:18:21;;;;;;;7.22;5.35;;;12.50;99.90;;;;;;5093763;28;20022;-78
2022/05/09 04:20:48;;;;;;;7.85;5.40;;;12.40;99.90;;;;;;5097327;28;20395;-78
2022/05/09 04:23:15;;;;;;;7.38;5.07;;;12.40;99.90;;;;;;5096188;28;20028;-78
2022/05/09 04:25:42;;;;;;;10.05;5.55;;;12.30;99.90;;;;;;5096609;28;20024;-78
2022/05/09 04:28:08;;;;;;;12.02;5.75;;;12.30;99.90;;;;;;5096016;28;20411;-78
2022/05/09 04:30:36;;;;;;;7.07;5.70;;;12.20;99.90;;;;;;5097391;28;20077;-78
2022/05/09 04:33:04;;;;;;;8.15;5.22;;;12.20;99.90;;;;;;5097310;28;20391;-78
2022/05/09 04:35:31;;;;;;;8.40;5.43;;;12.10;99.90;;;;;;5097319;28;20549;-78
2022/05/09 04:37:57;;;;;;;9.60;5.60;;;12.10;99.90;;;;;;5097332;28;20024;-78
2022/05/09 04:40:28;;;;;;;9.82;5.57;;;12.00;99.90;;;;;;5097585;28;20069;-78
2022/05/09 04:42:56;;;;;;;11.02;5.30;;;12.00;99.90;;;;;;5096099;28;20032;-78
2022/05/09 04:45:23;;;;;;;6.50;5.80;;;12.00;99.90;;;;;;5097356;28;20111;-78
2022/05/09 04:47:50;;;;;;;14.30;5.65;;;11.90;99.90;;;;;;5097330;28;20032;-78
2022/05/09 04:50:18;;;;;;;8.88;5.40;;;11.90;99.90;;;;;;5096996;28;20027;-78
2022/05/09 04:52:44;;;;;;;7.90;5.53;;;11.90;99.90;;;;;;5097420;28;20016;-78
2022/05/09 04:55:11;;;;;;;12.40;5.85;;;11.90;99.90;;;;;;5095972;28;20032;-78
2022/05/09 04:57:37;;;;;;;8.43;5.03;;;12.00;99.90;;;;;;5097257;28;20052;-78
2022/05/09 05:00:08;;;;;;;7.45;5.18;;;12.00;99.90;;;;;;5097390;28;20484;-78
2022/05/09 05:02:34;;;;;;;11.45;5.65;;;12.00;99.90;;;;;;5097129;28;20024;-78
2022/05/09 05:05:00;;;;;;;7.22;5.28;;;12.00;99.90;;;;;;5097427;28;20056;-78
2022/05/09 05:07:26;;;;;;;8.82;5.25;;;12.10;99.90;;;;;;5097187;28;20050;-78
2022/05/09 05:09:52;;;;;;;8.13;5.65;;;12.10;99.90;;;;;;5097150;28;20036;-78
2022/05/09 05:12:18;;;;;;;10.07;6.20;;;12.20;99.90;;;;;;5095735;28;20021;-78
2022/05/09 05:14:44;;;;;;;8.18;5.22;;;12.20;99.90;;;;;;5096181;28;20028;-78
2022/05/09 05:17:11;;;;;;;8.27;6.47;;;12.20;99.90;;;;;;5068493;28;20369;-79
2022/05/09 05:19:40;;;;;;;8.38;6.40;;;12.30;99.90;;;;;;5089539;28;20055;-78
2022/05/09 05:22:07;;;;;;;11.15;6.28;;;12.40;99.90;;;;;;5098384;28;20484;-78
2022/05/09 05:24:34;;;;;;;10.95;5.93;;;12.50;99.90;;;;;;5101269;28;20562;-79
2022/05/09 05:27:00;;;;;;;10.13;6.75;;;12.60;99.90;;;;;;5101249;28;20153;-78
2022/05/09 05:29:26;;;;;;;10.55;6.10;;;12.60;99.90;;;;;;5099694;28;20052;-79
2022/05/09 05:31:52;;;;;;;11.45;6.32;;;12.70;99.90;;;;;;5095312;28;20044;-78
2022/05/09 05:34:18;;;;;;;11.40;7.05;;;12.80;99.90;;;;;;5100803;28;20438;-79
2022/05/09 05:36:45;;;;;;;8.15;5.45;;;12.90;99.90;;;;;;5099733;28;20020;-79
2022/05/09 05:39:15;;;;;;;12.57;6.90;;;13.00;99.90;;;;;;5099687;28;20118;-78
2022/05/09 05:41:43;;;;;;;9.15;6.35;;;13.10;99.90;;;;;;5101449;28;20107;-78
2022/05/09 05:44:11;;;;;;;9.70;6.25;;;13.20;99.90;;;;;;5100800;28;20685;-79
2022/05/09 05:46:44;;;;;;;11.25;6.90;;;13.20;99.90;;;;;;5100684;28;20036;-78
2022/05/09 05:49:10;;;;;;;9.18;5.95;;;13.30;99.90;;;;;;5100489;28;20059;-78
2022/05/09 05:51:36;;;;;;;8.88;6.07;;;13.40;99.90;;;;;;5099514;28;20036;-79
2022/05/09 05:54:04;;;;;;;7.35;4.63;;;13.50;99.90;;;;;;5099613;28;20130;-79
2022/05/09 05:56:30;;;;;;;14.57;6.63;;;13.50;99.90;;;;;;5091093;28;20511;-79
2022/05/09 05:58:56;;;;;;;8.88;7.07;;;13.60;99.90;;;;;;5095863;28;20073;-81
2022/05/09 06:01:22;;;;;;;8.63;6.57;;;13.70;99.90;;;;;;5089310;28;20454;-80
2022/05/09 06:03:49;;;;;;;7.20;5.68;;;13.90;99.90;;;;;;5083511;28;20024;-80
2022/05/09 06:06:15;;;;;;;9.55;5.95;;;13.90;99.90;;;;;;5099377;28;20113;-81
2022/05/09 06:08:43;;;;;;;12.15;6.05;;;14.10;99.90;;;;;;5096146;28;20385;-80
2022/05/09 06:11:10;;;;;;;9.80;6.30;;;14.20;99.90;;;;;;5098989;28;20403;-80
2022/05/09 06:13:36;;;;;;;13.27;6.60;;;14.30;99.90;;;;;;5100226;28;20108;-80
2022/05/09 06:16:03;;;;;;;7.75;5.90;;;14.40;99.90;;;;;;5084020;28;20036;-79
2022/05/09 06:18:28;;;;;;;6.80;6.07;;;14.40;99.90;;;;;;5080655;28;20048;-79
2022/05/09 06:20:55;;;;;;;13.00;5.93;;;14.60;99.90;;;;;;5090178;28;20035;-80
2022/05/09 06:23:22;;;;;;;10.60;6.10;;;14.60;99.90;;;;;;5093947;28;20050;-80
2022/05/09 06:25:48;;;;;;;10.70;6.03;;;14.70;99.90;;;;;;5081231;28;20488;-80
2022/05/09 06:28:15;;;;;;;11.00;5.85;;;14.80;99.90;;;;;;5084345;28;20449;-80
2022/05/09 06:30:42;;;;;;;11.20;5.63;;;14.80;99.90;;;;;;5075560;28;20052;-80
2022/05/09 06:33:09;;;;;;;6.72;5.45;;;14.90;99.90;;;;;;5079716;28;20025;-81
2022/05/09 06:35:41;;;;;;;8.32;5.55;;;15.00;99.90;;;;;;5078816;28;20035;-80
2022/05/09 06:38:07;;;;;;;7.60;6.18;;;15.10;99.90;;;;;;5081320;28;20028;-79
2022/05/09 06:40:37;;;;;;;8.15;5.95;;;15.10;99.90;;;;;;5081256;28;20028;-80
2022/05/09 06:43:03;;;;;;;7.90;6.00;;;15.20;99.90;;;;;;5078461;28;20518;-81
2022/05/09 06:45:30;;;;;;;8.80;6.20;;;15.30;99.90;;;;;;5091377;28;20040;-80
2022/05/09 06:47:56;;;;;;;8.55;5.68;;;15.50;99.90;;;;;;5099444;28;20082;-80
2022/05/09 06:50:26;;;;;;;7.97;5.68;;;15.50;99.90;;;;;;5091743;28;20021;-80
2022/05/09 06:52:52;;;;;;;7.03;5.25;;;15.70;99.90;;;;;;5069486;28;21418;-81
2022/05/09 06:55:18;;;;;;;13.45;6.00;;;15.80;99.90;;;;;;5090136;28;20524;-81
2022/05/09 06:57:45;;;;;;;11.20;5.95;;;16.00;99.90;;;;;;5097230;28;20028;-80
2022/05/09 07:00:15;;;;;;;7.22;5.68;;;16.10;99.90;;;;;;5091881;28;20016;-80
2022/05/09 07:02:41;;;;;;;8.98;4.78;;;16.20;99.90;;;;;;5091513;28;20107;-80
2022/05/09 07:05:10;;;;;;;10.40;5.70;;;16.20;99.90;;;;;;5085151;28;20017;-81
2022/05/09 07:07:36;;;;;;;9.27;5.95;;;16.30;99.90;;;;;;5091031;28;20036;-80
2022/05/09 07:10:03;;;;;;;8.75;5.30;;;16.50;99.90;;;;;;5095435;28;20074;-82
2022/05/09 07:12:29;;;;;;;12.10;5.55;;;16.60;99.90;;;;;;5097737;28;20369;-81
2022/05/09 07:14:55;;;;;;;10.10;5.30;;;16.70;99.90;;;;;;5092033;28;20028;-82
2022/05/09 07:17:21;;;;;;;7.70;5.22;;;16.90;99.90;;;;;;5085558;28;20028;-82
2022/05/09 07:19:47;;;;;;;11.95;5.05;;;17.00;99.90;;;;;;5098617;28;20023;-81
2022/05/09 07:22:13;;;;;;;12.20;6.13;;;17.10;99.90;;;;;;5099077;28;20035;-82
2022/05/09 07:24:40;;;;;;;11.77;5.53;;;17.20;99.90;;;;;;5098835;28;20057;-81
2022/05/09 07:27:07;;;;;;;22.20;6.38;;;17.40;99.90;;;;;;5099088;28;20480;-80
2022/05/09 07:29:34;;;;;;;9.35;5.55;;;17.40;99.90;;;;;;5097282;28;20020;-80
2022/05/09 07:32:00;;;;;;;9.98;4.82;;;17.50;99.90;;;;;;5097399;28;20024;-81
2022/05/09 07:34:26;;;;;;;6.72;4.63;;;17.50;99.90;;;;;;5095301;28;20116;-81
2022/05/09 07:36:52;;;;;;;7.60;5.32;;;17.60;99.90;;;;;;5085143;28;20036;-80
2022/05/09 07:39:18;;;;;;;7.82;4.72;;;17.70;99.90;;;;;;5066036;28;20051;-81
2022/05/09 07:41:43;;;;;;;8.07;4.70;;;17.80;99.90;;;;;;5076342;28;20035;-79
2022/05/09 07:44:09;;;;;;;5.65;4.68;;;17.80;99.90;;;;;;5098129;28;20012;-80
2022/05/09 07:46:35;;;;;;;15.73;5.30;;;17.80;99.90;;;;;;5098373;28;20051;-81
2022/05/09 07:49:01;;;;;;;9.52;5.13;;;17.90;99.90;;;;;;5096677;28;20028;-81
2022/05/09 07:51:27;;;;;;;8.43;5.45;;;18.00;99.90;;;;;;5097042;28;20043;-81
2022/05/09 07:53:53;;;;;;;8.85;5.22;;;18.00;99.90;;;;;;5096277;28;20024;-81
2022/05/09 07:56:19;;;;;;;9.77;5.65;;;18.00;99.90;;;;;;5098120;28;20031;-82
2022/05/09 07:58:45;;;;;;;21.98;6.40;;;18.10;99.90;;;;;;5096922;28;20024;-81
2022/05/09 08:01:10;;;;;;;8.00;4.97;;;18.30;99.90;;;;;;5087402;28;20025;-82
2022/05/09 08:03:39;;;;;;;5.70;4.20;;;18.40;99.90;;;;;;5093092;28;20028;-81
2022/05/09 08:06:05;;;;;;;9.45;4.80;;;18.60;99.90;;;;;;5096871;28;20035;-82
2022/05/09 08:08:36;;;;;;;11.60;5.45;;;18.50;99.90;;;;;;5098323;28;20024;-82
2022/05/09 08:11:02;;;;;;;7.20;4.60;;;18.70;99.90;;;;;;5098124;28;20028;-78
2022/05/09 08:13:33;;;;;;;8.82;4.78;;;19.00;99.90;;;;;;5081550;28;21364;-78
2022/05/09 08:16:04;;;;;;;7.57;4.20;;;19.10;99.90;;;;;;5076096;28;20024;-81
2022/05/09 08:18:31;;;;;;;8.52;4.35;;;19.20;99.90;;;;;;5095478;28;20020;-83
2022/05/09 08:20:59;;;;;;;9.63;4.60;;;19.10;99.90;;;;;;5097663;28;20141;-81
2022/05/09 08:23:26;;;;;;;7.05;4.45;;;19.10;99.90;;;;;;5096337;28;20432;-77
2022/05/09 08:25:55;;;;;;;12.98;5.15;;;19.10;99.90;;;;;;5097790;28;20102;-78
2022/05/09 08:28:21;;;;;;;10.80;4.53;;;19.00;99.90;;;;;;5097543;28;20024;-79
2022/05/09 08:30:48;;;;;;;6.53;4.20;;;19.00;99.90;;;;;;5097652;28;20031;-80
2022/05/09 08:33:17;;;;;;;8.88;5.03;;;19.00;99.90;;;;;;5096219;28;20077;-78
2022/05/09 08:35:48;;;;;;;12.68;5.78;;;19.10;99.90;;;;;;5097266;28;20050;-80
2022/05/09 08:38:15;;;;;;;13.40;5.07;;;19.10;99.90;;;;;;5084420;28;20028;-76
2022/05/09 08:41:11;;;;;;;10.13;5.35;;;19.20;99.90;;;;;;5097580;28;20056;-78
2022/05/09 08:43:51;;;;;;;12.25;5.00;;;19.20;99.90;;;;;;5097326;28;20027;-78
2022/05/09 08:46:39;;;;;;;6.00;3.80;;;19.50;99.90;;;;;;5095965;28;20056;-78
2022/05/09 08:49:42;;;;;;;7.50;5.10;;;19.70;99.90;;;;;;5088404;28;20054;-78
2022/05/09 08:52:21;;;;;;;6.00;4.45;;;19.90;99.90;;;;;;5096030;28;20039;-79
2022/05/09 08:54:48;;;;;;;7.78;3.75;;;19.90;99.90;;;;;;5095747;28;20169;-80
2022/05/09 08:57:23;;;;;;;9.20;4.50;;;20.00;99.90;;;;;;5096546;28;20028;-80
2022/05/09 09:00:11;;;;;;;9.82;4.63;;;20.00;99.90;;;;;;5097140;28;20020;-80
2022/05/09 09:02:46;;;;;;;8.77;4.13;;;20.00;99.90;;;;;;5095844;28;20027;-80
2022/05/09 09:05:19;;;;;;;6.88;3.97;;;20.00;99.90;;;;;;5096807;28;20020;-80
2022/05/09 09:07:52;;;;;;;7.68;5.05;;;20.10;99.90;;;;;;5095936;28;20032;-79
2022/05/09 09:10:27;;;;;;;8.48;4.50;;;20.80;99.90;;;;;;5096021;28;20491;-78
2022/05/09 09:13:19;;;;;;;7.88;4.25;;;20.90;99.90;;;;;;5096038;28;20408;-80
2022/05/09 09:16:12;;;;;;;11.15;4.78;;;20.80;99.90;;;;;;5086656;28;20028;-79
2022/05/09 09:19:16;;;;;;;8.13;4.80;;;20.60;99.90;;;;;;5094112;28;20023;-78
2022/05/09 09:21:53;;;;;;;12.82;4.28;;;20.60;99.90;;;;;;5085861;28;20408;-78
2022/05/09 09:24:49;;;;;;;8.10;4.20;;;20.40;99.90;;;;;;5097287;28;20025;-80
2022/05/09 09:27:33;;;;;;;8.93;3.97;;;20.50;99.90;;;;;;5097162;28;20107;-79
2022/05/09 09:30:10;;;;;;;11.73;4.07;;;20.70;99.90;;;;;;5077670;28;20024;-79
2022/05/09 09:32:41;;;;;;;11.38;4.13;;;20.80;99.90;;;;;;5090362;28;20392;-79
2022/05/09 09:35:14;;;;;;;6.93;4.53;;;21.00;99.90;;;;;;5096861;28;20549;-79
2022/05/09 09:37:58;;;;;;;4.90;3.75;;;21.00;99.90;;;;;;5095552;28;20052;-78
2022/05/09 09:40:24;;;;;;;6.63;4.30;;;20.90;99.90;;;;;;5097066;28;20055;-79
2022/05/09 09:42:54;;;;;;;9.07;4.55;;;20.90;99.90;;;;;;5095561;28;20031;-79
2022/05/09 09:45:26;;;;;;;7.13;3.53;;;20.90;99.90;;;;;;5066745;28;20049;-77
2022/05/09 09:48:22;;;;;;;6.47;3.97;;;21.00;99.90;;;;;;5057751;28;20029;-78
2022/05/09 09:51:07;;;;;;;10.57;4.03;;;21.10;99.90;;;;;;5082893;28;20515;-78
2022/05/09 09:53:50;;;;;;;7.43;4.60;;;21.30;99.90;;;;;;5076988;28;20024;-77
2022/05/09 09:56:22;;;;;;;10.70;4.38;;;21.60;99.90;;;;;;5060888;28;20028;-78
2022/05/09 09:58:55;;;;;;;7.90;4.80;;;21.70;99.90;;;;;;5065530;28;20071;-79
2022/05/09 10:01:23;;;;;;;10.70;4.70;;;21.90;99.90;;;;;;5094931;28;20077;-77
2022/05/09 10:04:05;;;;;;;8.82;4.15;;;22.00;99.90;;;;;;5093223;28;20409;-80
2022/05/09 10:06:32;;;;;;;12.63;4.53;;;22.10;99.90;;;;;;5096550;28;20032;-78
2022/05/09 10:09:01;;;;;;;5.18;3.67;;;22.20;99.90;;;;;;5089556;28;20040;-79
2022/05/09 10:11:30;;;;;;;9.80;4.35;;;22.10;99.90;;;;;;5091720;28;20477;-78
2022/05/09 10:14:02;;;;;;;8.85;3.75;;;22.20;99.90;;;;;;5093627;28;20048;-79
2022/05/09 10:16:33;;;;;;;5.95;3.92;;;22.30;99.90;;;;;;5079951;28;20033;-79
2022/05/09 10:19:02;;;;;;;7.60;3.90;;;22.30;99.90;;;;;;5076116;28;20023;-79
2022/05/09 10:24:50;;;;;;;9.85;4.57;;;22.50;99.90;;;;;;5053863;28;20075;-78
2022/05/09 10:27:22;;;;;;;7.40;3.80;;;22.60;99.90;;;;;;5075263;28;20444;-79
2022/05/09 10:30:15;;;;;;;10.00;3.20;;;22.70;99.90;;;;;;5095831;28;20032;-79
2022/05/09 10:33:06;;;;;;;8.43;3.75;;;22.70;99.90;;;;;;5096566;28;20068;-79
2022/05/09 10:35:42;;;;;;;6.75;4.00;;;22.80;99.90;;;;;;5098041;28;20487;-80
2022/05/09 10:38:14;;;;;;;8.73;4.63;;;22.70;99.90;;;;;;5098198;28;20021;-79
2022/05/09 10:40:44;;;;;;;7.38;3.80;;;22.80;99.90;;;;;;5099967;28;20447;-79
2022/05/09 10:43:35;;;;;;;10.40;3.50;;;23.00;99.90;;;;;;5099732;28;20031;-79
2022/05/09 10:46:09;;;;;;;5.82;3.92;;;22.90;99.90;;;;;;5099208;28;20062;-79
2022/05/09 10:49:01;;;;;;;8.70;3.90;;;22.80;99.90;;;;;;5096824;28;20426;-79
2022/05/09 10:51:40;;;;;;;9.68;3.65;;;22.90;99.90;;;;;;5085014;28;20028;-78
2022/05/09 10:54:12;;;;;;;8.82;4.13;;;23.00;99.90;;;;;;5096589;28;20020;-78
2022/05/09 10:56:45;;;;;;;7.47;3.88;;;22.90;99.90;;;;;;5097856;28;20396;-79
2022/05/09 10:59:25;;;;;;;7.60;3.70;;;23.00;99.90;;;;;;5099241;28;20079;-79
2022/05/09 11:01:56;;;;;;;7.10;3.50;;;23.10;99.90;;;;;;5099178;28;20052;-78
2022/05/09 11:04:24;;;;;;;6.03;3.05;;;23.10;99.80;;;;;;5097829;28;20020;-79
2022/05/09 11:06:59;;;;;;;5.15;3.08;;;23.10;98.10;;;;;;5098904;28;20031;-79
2022/05/09 11:09:57;;;;;;;5.25;2.90;;;23.30;99.20;;;;;;5098978;28;20107;-79
2022/05/09 11:12:38;;;;;;;10.38;3.25;;;23.40;98.80;;;;;;5092290;28;20043;-78
2022/05/09 11:15:14;;;;;;;13.30;3.47;;;23.60;98.40;;;;;;5094732;28;20023;-78
2022/05/09 11:18:13;;;;;;;7.45;4.20;;;23.60;98.90;;;;;;5089363;28;20594;-80
2022/05/09 11:21:12;;;;;;;11.40;3.65;;;23.50;98.50;;;;;;5081042;28;20488;-80
2022/05/09 11:24:16;;;;;;;7.97;3.70;;;23.50;99.00;;;;;;5079498;28;20025;-78
2022/05/09 11:27:09;;;;;;;5.55;3.20;;;23.50;97.70;;;;;;5038657;28;20053;-79
2022/05/09 11:29:43;;;;;;;11.68;3.35;;;23.40;98.60;;;;;;5079888;28;20040;-78
2022/05/09 11:32:19;;;;;;;10.02;4.05;;;23.60;99.10;;;;;;5075841;28;20439;-79
2022/05/09 11:35:16;;;;;;;6.50;2.95;;;23.70;97.80;;;;;;5082677;28;20032;-79
2022/05/09 11:38:15;;;;;;;4.43;2.88;;;24.00;96.60;;;;;;5098275;28;20016;-79
2022/05/09 11:40:53;;;;;;;6.93;3.95;;;24.10;96.10;;;;;;5095402;28;20100;-79
2022/05/09 11:43:45;;;;;;;11.27;4.05;;;24.00;95.20;;;;;;5098495;28;20024;-79
2022/05/09 11:46:23;;;;;;;9.20;3.47;;;24.20;95.10;;;;;;5093456;28;20525;-79
2022/05/09 11:49:14;;;;;;;11.05;3.22;;;24.10;95.50;;;;;;5076916;28;20025;-79
2022/05/09 11:51:56;;;;;;;4.38;2.97;;;24.30;94.00;;;;;;5093112;28;20024;-79
2022/05/09 11:54:32;;;;;;;5.30;3.08;;;24.40;93.70;;;;;;5097128;28;20024;-78
2022/05/09 11:57:12;;;;;;;7.82;3.22;;;24.40;93.50;;;;;;5098093;28;20031;-78
2022/05/09 11:59:50;;;;;;;5.93;2.80;;;24.40;94.30;;;;;;5098356;28;20062;-79
2022/05/09 12:02:44;;;;;;;8.20;3.30;;;24.50;93.60;;;;;;5098069;28;20433;-78
2022/05/09 12:05:31;;;;;;;4.88;2.92;;;24.50;95.70;;;;;;5096575;28;20016;-79
2022/05/09 12:08:05;;;;;;;7.05;3.08;;;24.60;92.80;;;;;;5096311;28;20091;-79
2022/05/09 12:10:35;;;;;;;4.07;2.75;;;24.80;93.00;;;;;;5083249;28;20046;-78
2022/05/09 12:13:30;;;;;;;3.10;2.47;;;24.90;90.40;;;;;;5097736;28;20035;-77
2022/05/09 12:15:58;;;;;;;4.28;2.78;;;24.80;90.90;;;;;;5071132;28;20086;-76
2022/05/09 12:18:31;;;;;;;6.32;2.85;;;24.80;90.50;;;;;;5093648;28;20020;-77
2022/05/09 12:21:21;;;;;;;4.78;2.72;;;24.90;92.00;;;;;;5097334;28;20073;-77
2022/05/09 12:23:50;;;;;;;4.95;2.55;;;25.00;91.50;;;;;;5097413;28;20020;-77
2022/05/09 12:26:33;;;;;;;4.95;2.88;;;25.20;90.50;;;;;;5098010;28;20052;-76
2022/05/09 12:29:26;;;;;;;4.93;3.20;;;25.20;90.10;;;;;;5097857;28;20066;-77
2022/05/09 12:31:58;;;;;;;4.72;2.63;;;25.30;88.10;;;;;;5095011;28;20032;-77
2022/05/09 12:34:38;;;;;;;5.78;2.85;;;25.30;88.70;;;;;;5095953;28;20028;-77
2022/05/09 12:37:04;;;;;;;6.00;2.30;;;25.60;91.10;;;;;;5096139;28;20483;-77
2022/05/09 12:39:42;;;;;;;5.80;2.58;;;25.70;91.20;;;;;;5097483;28;20020;-76
2022/05/09 12:42:21;;;;;;;6.22;3.08;;;25.70;84.50;;;;;;5096228;28;20391;-77
2022/05/09 12:44:50;;;;;;;4.38;2.53;;;25.70;87.50;;;;;;5095791;28;20093;-77
2022/05/09 12:47:23;;;;;;;7.43;2.58;;;25.60;84.80;;;;;;5096177;28;20508;-77
2022/05/09 12:49:57;;;;;;;7.60;2.50;;;25.60;89.00;;;;;;5097344;28;20384;-77
2022/05/09 12:52:28;;;;;;;5.18;2.42;;;25.70;84.90;;;;;;5086904;28;20028;-77
2022/05/09 12:57:40;;;;;;;4.60;2.22;;;25.90;84.10;;;;;;5097211;28;19915;-77
2022/05/09 13:00:19;;;;;;;2.83;2.03;;;26.00;86.00;;;;;;5097239;28;20008;-77
2022/05/09 13:02:46;;;;;;;6.47;2.65;;;25.90;84.90;;;;;;5097466;28;20024;-77
2022/05/09 13:05:13;;;;;;;5.28;2.70;;;26.00;87.10;;;;;;5096994;28;20138;-77
2022/05/09 13:08:02;;;;;;;6.07;2.58;;;26.00;85.90;;;;;;5097578;28;20020;-77
2022/05/09 13:10:29;;;;;;;4.40;2.15;;;26.20;83.10;;;;;;5097161;28;20088;-76
2022/05/09 13:13:02;;;;;;;3.72;2.38;;;26.30;85.10;;;;;;5097384;28;20502;-77
2022/05/09 13:15:29;;;;;;;10.75;3.15;;;26.50;81.70;;;;;;5088494;28;20503;-78
2022/05/09 13:17:59;;;;;;;4.75;2.38;;;26.60;82.80;;;;;;5090094;28;20031;-77